Time;durP1;ratioP1;P1;durP2;ratioP2;P2;SDS_P1;SDS_P2;PMS_P1;PMS_P2;Temp;Humidity;BMP_temperature;BMP_pressure;BME280_temperature;BME280_humidity;BME280_pressure;Samples;Min_cycle;Max_cycle;Signal;HPM_P1;HPM_P2
2023/12/02 00:01:29;;;;;;;60.65;21.90;;;;;;;-4.50;100.00;97743.88;5115849;28;20051;-55
2023/12/02 00:03:55;;;;;;;62.35;20.23;;;;;;;-4.30;100.00;97697.16;5118410;28;20066;-60
2023/12/02 00:06:22;;;;;;;55.90;19.65;;;;;;;-4.21;100.00;97638.34;5116043;28;20405;-59
2023/12/02 00:08:48;;;;;;;53.97;19.23;;;;;;;-4.28;100.00;97598.66;5118257;28;20066;-56
2023/12/02 00:11:14;;;;;;;48.85;18.60;;;;;;;-4.12;100.00;97545.53;5114823;28;20447;-60
2023/12/02 00:13:41;;;;;;;61.13;20.35;;;;;;;-4.31;100.00;97511.75;5118044;28;20106;-57
2023/12/02 00:16:09;;;;;;;58.90;20.50;;;;;;;-4.21;100.00;97499.22;5116219;28;20562;-57
2023/12/02 00:18:35;;;;;;;51.05;19.13;;;;;;;-4.23;100.00;97482.66;5115834;28;20084;-58
2023/12/02 00:21:02;;;;;;;62.10;19.85;;;;;;;-4.22;100.00;97489.59;5117727;28;20058;-59
2023/12/02 00:23:28;;;;;;;66.40;18.70;;;;;;;-4.30;100.00;97477.75;5115417;28;20098;-60
2023/12/02 00:25:54;;;;;;;48.22;17.63;;;;;;;-4.26;100.00;97492.13;5117927;28;20087;-55
2023/12/02 00:28:21;;;;;;;59.83;19.85;;;;;;;-4.24;100.00;97527.38;5115422;28;20421;-59
2023/12/02 00:30:47;;;;;;;62.70;18.77;;;;;;;-4.35;100.00;97526.84;5117781;28;20091;-59
2023/12/02 00:33:14;;;;;;;64.10;20.23;;;;;;;-4.22;100.00;97535.09;5115376;28;20144;-59
2023/12/02 00:35:41;;;;;;;59.00;18.52;;;;;;;-4.29;100.00;97555.06;5117864;28;20105;-58
2023/12/02 00:38:07;;;;;;;53.90;19.20;;;;;;;-4.21;100.00;97566.88;5115303;28;20063;-56
2023/12/02 00:40:33;;;;;;;47.95;17.98;;;;;;;-4.17;100.00;97577.75;5117799;28;20109;-60
2023/12/02 00:43:00;;;;;;;70.85;18.77;;;;;;;-4.16;100.00;97564.09;5115278;28;20091;-59
2023/12/02 00:45:26;;;;;;;52.78;19.90;;;;;;;-4.17;100.00;97556.34;5115384;28;20098;-59
2023/12/02 00:47:52;;;;;;;69.15;20.23;;;;;;;-4.05;100.00;97548.56;5117163;28;20187;-61
2023/12/02 00:50:19;;;;;;;66.43;19.65;;;;;;;-4.08;100.00;97541.91;5115084;28;20056;-59
2023/12/02 00:52:46;;;;;;;56.15;20.42;;;;;;;-4.28;100.00;97523.72;5117359;28;20101;-61
2023/12/02 00:55:12;;;;;;;56.75;20.10;;;;;;;-4.21;100.00;97556.19;5115173;28;20135;-62
2023/12/02 00:57:38;;;;;;;67.35;18.35;;;;;;;-4.02;100.00;97593.44;5117452;28;20087;-58
2023/12/02 01:00:06;;;;;;;64.57;21.80;;;;;;;-4.05;100.00;97588.69;5115073;28;20055;-61
2023/12/02 01:02:32;;;;;;;50.30;17.90;;;;;;;-3.94;100.00;97589.22;5117292;28;20051;-56
2023/12/02 01:04:59;;;;;;;62.83;18.95;;;;;;;-3.91;100.00;97577.88;5114936;28;20349;-60
2023/12/02 01:07:26;;;;;;;56.45;20.08;;;;;;;-3.84;100.00;97570.97;5117408;28;20063;-59
2023/12/02 01:09:52;;;;;;;53.05;17.80;;;;;;;-3.89;100.00;97530.19;5114806;28;20117;-61
2023/12/02 01:12:18;;;;;;;51.92;18.08;;;;;;;-3.91;100.00;97514.41;5116132;28;20366;-57
2023/12/02 01:14:45;;;;;;;43.90;18.02;;;;;;;-3.90;100.00;97502.63;5116180;28;20523;-58
2023/12/02 01:17:11;;;;;;;57.58;17.58;;;;;;;-3.78;100.00;97486.75;5114863;28;20060;-61
2023/12/02 01:19:37;;;;;;;48.90;17.80;;;;;;;-3.68;100.00;97492.91;5117124;28;20333;-58
2023/12/02 01:22:04;;;;;;;51.83;17.70;;;;;;;-3.73;100.00;97475.09;5114500;28;20098;-61
2023/12/02 01:24:31;;;;;;;54.17;18.45;;;;;;;-3.69;100.00;97477.94;5116803;28;20468;-61
2023/12/02 01:26:57;;;;;;;68.85;19.08;;;;;;;-3.66;100.00;97504.88;5114737;28;20083;-58
2023/12/02 01:29:24;;;;;;;52.88;18.85;;;;;;;-3.60;100.00;97500.97;5117225;28;20163;-61
2023/12/02 01:31:50;;;;;;;57.13;16.27;;;;;;;-3.62;100.00;97521.13;5114619;28;20140;-60
2023/12/02 01:34:16;;;;;;;44.13;16.17;;;;;;;-3.58;100.00;97556.88;5117103;28;20090;-58
2023/12/02 01:36:44;;;;;;;42.10;15.50;;;;;;;-3.51;100.00;97562.56;5114512;28;20047;-57
2023/12/02 01:39:12;;;;;;;51.67;17.13;;;;;;;-3.58;100.00;97560.34;5116904;28;20083;-57
2023/12/02 01:41:39;;;;;;;43.15;16.17;;;;;;;-3.54;100.00;97568.56;5114926;28;20464;-61
2023/12/02 01:44:05;;;;;;;44.55;16.50;;;;;;;-3.49;100.00;97591.75;5114204;28;20326;-58
2023/12/02 01:46:32;;;;;;;40.55;14.80;;;;;;;-3.48;100.00;97580.72;5116796;28;20091;-61
2023/12/02 01:48:59;;;;;;;68.97;18.77;;;;;;;-3.42;100.00;97558.03;5114365;28;20139;-61
2023/12/02 01:51:27;;;;;;;54.10;17.48;;;;;;;-3.42;100.00;97567.97;5116673;28;20060;-60
2023/12/02 01:53:54;;;;;;;46.67;14.50;;;;;;;-3.26;100.00;97576.34;5114257;28;20501;-62
2023/12/02 01:56:20;;;;;;;53.42;16.92;;;;;;;-3.28;100.00;97573.97;5116463;28;20390;-61
2023/12/02 01:58:48;;;;;;;53.78;16.35;;;;;;;-3.25;100.00;97581.38;5114179;28;20310;-57
2023/12/02 02:01:14;;;;;;;45.15;15.18;;;;;;;-3.19;100.00;97577.47;5116775;28;20083;-61
2023/12/02 02:03:40;;;;;;;42.47;15.57;;;;;;;-3.59;100.00;97556.09;5113948;28;20087;-62
2023/12/02 02:06:09;;;;;;;47.55;17.42;;;;;;;-3.31;100.00;97596.03;5116701;28;20087;-55
2023/12/02 02:08:36;;;;;;;44.95;15.52;;;;;;;-3.22;100.00;97614.81;5116107;28;20406;-58
2023/12/02 02:11:02;;;;;;;40.30;14.63;;;;;;;-3.57;100.00;97596.75;5114011;28;20413;-60
2023/12/02 02:13:29;;;;;;;44.17;16.63;;;;;;;-3.37;100.00;97648.19;5116346;28;20051;-59
2023/12/02 02:15:56;;;;;;;50.95;15.98;;;;;;;-3.24;100.00;97639.25;5113968;28;20058;-57
2023/12/02 02:18:22;;;;;;;35.20;13.85;;;;;;;-3.26;100.00;97635.31;5116431;28;20078;-61
2023/12/02 02:20:51;;;;;;;40.40;15.13;;;;;;;-3.24;100.00;97620.47;5113992;28;20383;-59
2023/12/02 02:23:19;;;;;;;50.40;16.00;;;;;;;-3.14;100.00;97614.03;5116350;28;20094;-62
2023/12/02 02:25:45;;;;;;;43.42;14.95;;;;;;;-3.14;100.00;97593.38;5113807;28;20051;-61
2023/12/02 02:28:12;;;;;;;42.25;14.00;;;;;;;-3.06;100.00;97591.06;5116559;28;20083;-60
2023/12/02 02:30:38;;;;;;;49.25;14.85;;;;;;;-3.23;100.00;97592.59;5113796;28;20102;-59
2023/12/02 02:33:04;;;;;;;41.97;15.77;;;;;;;-3.04;100.00;97600.34;5116559;28;20060;-62
2023/12/02 02:35:32;;;;;;;49.30;15.45;;;;;;;-3.11;100.00;97589.28;5117197;28;20341;-60
2023/12/02 02:37:59;;;;;;;38.35;13.57;;;;;;;-3.16;100.00;97586.78;5117226;28;20108;-57
2023/12/02 02:40:26;;;;;;;37.58;13.18;;;;;;;-3.09;100.00;97587.09;5119363;28;20461;-59
2023/12/02 02:42:52;;;;;;;49.30;16.02;;;;;;;-3.20;100.00;97577.75;5117022;28;20055;-61
2023/12/02 02:45:18;;;;;;;42.65;15.70;;;;;;;-3.33;100.00;97582.97;5119439;28;20075;-57
2023/12/02 02:47:45;;;;;;;52.80;16.85;;;;;;;-3.19;100.00;97620.34;5117169;28;20159;-59
2023/12/02 02:50:11;;;;;;;50.47;16.10;;;;;;;-3.27;100.00;97626.47;5119501;28;20056;-57
2023/12/02 02:52:37;;;;;;;51.70;15.45;;;;;;;-3.10;100.00;97644.47;5116965;28;20457;-60
2023/12/02 02:55:05;;;;;;;43.97;15.23;;;;;;;-3.12;100.00;97623.34;5119118;28;20113;-59
2023/12/02 02:57:32;;;;;;;48.38;16.25;;;;;;;-3.08;100.00;97608.22;5116856;28;20055;-57
2023/12/02 02:59:58;;;;;;;52.10;17.15;;;;;;;-3.06;100.00;97591.06;5119505;28;20082;-61
2023/12/02 03:02:24;;;;;;;48.78;16.45;;;;;;;-3.49;100.00;97600.56;5116898;28;20144;-58
2023/12/02 03:04:51;;;;;;;47.70;15.85;;;;;;;-3.49;100.00;97656.84;5115331;28;20401;-61
2023/12/02 03:07:17;;;;;;;42.45;15.13;;;;;;;-3.28;100.00;97709.88;5118266;28;20101;-57
2023/12/02 03:09:43;;;;;;;42.97;14.55;;;;;;;-3.13;100.00;97702.22;5116932;28;20088;-58
2023/12/02 03:12:10;;;;;;;42.78;15.48;;;;;;;-3.06;100.00;97682.19;5119365;28;20108;-60
2023/12/02 03:14:38;;;;;;;49.58;14.90;;;;;;;-3.06;100.00;97680.31;5116584;28;20425;-58
2023/12/02 03:17:04;;;;;;;53.17;16.15;;;;;;;-3.02;100.00;97656.34;5119095;28;20360;-59
2023/12/02 03:19:31;;;;;;;58.35;17.65;;;;;;;-2.96;100.00;97658.56;5116517;28;20105;-55
2023/12/02 03:21:57;;;;;;;44.63;15.07;;;;;;;-3.08;100.00;97621.63;5118988;28;20098;-62
2023/12/02 03:24:23;;;;;;;51.35;15.57;;;;;;;-2.99;100.00;97645.00;5116818;28;20142;-59
2023/12/02 03:26:50;;;;;;;38.58;13.65;;;;;;;-2.91;100.00;97649.56;5119018;28;20093;-56
2023/12/02 03:29:16;;;;;;;42.47;13.82;;;;;;;-3.03;100.00;97626.06;5116487;28;20446;-61
2023/12/02 03:31:43;;;;;;;41.67;13.90;;;;;;;-3.21;100.00;97637.84;5119120;28;20066;-57
2023/12/02 03:34:10;;;;;;;35.55;13.40;;;;;;;-2.95;100.00;97684.25;5117008;28;20112;-55
2023/12/02 03:36:36;;;;;;;38.28;13.38;;;;;;;-2.95;100.00;97662.81;5116581;28;20333;-62
2023/12/02 03:39:03;;;;;;;43.78;14.23;;;;;;;-3.01;100.00;97674.00;5118425;28;20188;-56
2023/12/02 03:41:30;;;;;;;57.80;16.15;;;;;;;-3.21;100.00;97660.06;5116261;28;20059;-57
2023/12/02 03:43:56;;;;;;;47.45;13.38;;;;;;;-2.98;100.00;97705.56;5118418;28;20063;-60
2023/12/02 03:46:22;;;;;;;52.80;15.63;;;;;;;-2.95;100.00;97716.44;5115018;28;20394;-58
2023/12/02 03:48:49;;;;;;;54.15;17.30;;;;;;;-3.06;100.00;97704.44;5118753;28;20098;-60
2023/12/02 03:51:15;;;;;;;52.90;16.33;;;;;;;-3.04;100.00;97720.97;5116017;28;20051;-57
2023/12/02 03:53:43;;;;;;;46.97;15.95;;;;;;;-3.02;100.00;97726.84;5118523;28;20535;-60
2023/12/02 03:56:10;;;;;;;35.58;12.25;;;;;;;-2.92;100.00;97736.50;5115927;28;20052;-62
2023/12/02 03:58:37;;;;;;;45.08;15.50;;;;;;;-2.94;100.00;97709.97;5118534;28;20087;-62
2023/12/02 04:01:03;;;;;;;39.65;14.27;;;;;;;-2.89;100.00;97717.88;5115906;28;20401;-60
2023/12/02 04:03:29;;;;;;;42.65;13.95;;;;;;;-2.90;100.00;97715.50;5115843;28;20162;-60
2023/12/02 04:05:56;;;;;;;45.08;14.38;;;;;;;-3.08;100.00;97715.44;5118051;28;20138;-61
2023/12/02 04:08:23;;;;;;;45.70;15.52;;;;;;;-3.28;100.00;97763.47;5116064;28;20083;-54
2023/12/02 04:10:49;;;;;;;38.85;14.68;;;;;;;-3.22;100.00;97842.66;5118014;28;20101;-58
2023/12/02 04:13:16;;;;;;;45.25;14.48;;;;;;;-3.09;100.00;97853.28;5115747;28;20499;-56
2023/12/02 04:15:44;;;;;;;41.05;13.50;;;;;;;-3.00;100.00;97876.66;5118072;28;20429;-61
2023/12/02 04:18:10;;;;;;;45.92;14.55;;;;;;;-3.17;100.00;97850.53;5115570;28;20056;-62
2023/12/02 04:20:37;;;;;;;38.00;14.23;;;;;;;-2.95;100.00;97869.28;5118081;28;20405;-58
2023/12/02 04:23:04;;;;;;;52.00;14.80;;;;;;;-2.91;100.00;97856.06;5115473;28;20047;-60
2023/12/02 04:25:31;;;;;;;51.00;16.67;;;;;;;-2.94;100.00;97860.13;5118035;28;20047;-61
2023/12/02 04:27:57;;;;;;;42.13;15.30;;;;;;;-2.80;100.00;97837.78;5115472;28;20097;-62
2023/12/02 04:30:23;;;;;;;53.13;16.23;;;;;;;-2.88;100.00;97810.63;5116019;28;20369;-57
2023/12/02 04:32:50;;;;;;;49.28;14.43;;;;;;;-3.27;100.00;97821.31;5117102;28;20087;-61
2023/12/02 04:35:16;;;;;;;46.90;14.25;;;;;;;-3.19;100.00;97877.66;5115590;28;20094;-60
2023/12/02 04:37:42;;;;;;;48.55;17.02;;;;;;;-3.27;100.00;97910.56;5117507;28;20086;-58
2023/12/02 04:40:11;;;;;;;51.80;18.33;;;;;;;-3.44;100.00;97961.34;5115328;28;20091;-61
2023/12/02 04:42:38;;;;;;;55.50;19.70;;;;;;;-3.78;100.00;97997.44;5117565;28;20052;-57
2023/12/02 04:45:06;;;;;;;59.38;20.45;;;;;;;-3.70;100.00;98041.47;5115208;28;20062;-59
2023/12/02 04:47:33;;;;;;;61.97;20.77;;;;;;;-3.74;100.00;98056.53;5117609;28;20051;-60
2023/12/02 04:49:59;;;;;;;66.75;21.20;;;;;;;-3.44;100.00;98073.88;5114852;28;20413;-61
2023/12/02 04:52:25;;;;;;;64.93;21.25;;;;;;;-3.63;100.00;98057.91;5117790;28;20067;-59
2023/12/02 04:54:52;;;;;;;70.70;22.88;;;;;;;-3.75;100.00;98053.06;5114927;28;20121;-62
2023/12/02 04:57:19;;;;;;;70.03;21.60;;;;;;;-3.60;100.00;98071.53;5116326;28;20083;-57
2023/12/02 04:59:45;;;;;;;75.95;23.63;;;;;;;-3.47;100.00;98015.53;5115925;28;20139;-60
2023/12/02 05:02:11;;;;;;;67.45;21.88;;;;;;;-3.52;100.00;97951.34;5115065;28;20098;-56
2023/12/02 05:04:38;;;;;;;83.13;23.13;;;;;;;-3.75;100.00;97913.81;5117077;28;20101;-61
2023/12/02 05:07:04;;;;;;;71.18;23.50;;;;;;;-3.83;100.00;97936.75;5115047;28;20120;-60
2023/12/02 05:09:30;;;;;;;86.65;24.33;;;;;;;-3.72;100.00;97960.63;5117326;28;20074;-59
2023/12/02 05:11:57;;;;;;;83.13;24.45;;;;;;;-3.69;100.00;97957.34;5114935;28;20093;-58
2023/12/02 05:14:24;;;;;;;79.00;23.05;;;;;;;-3.37;100.00;97948.31;5117177;28;20059;-62
2023/12/02 05:16:50;;;;;;;76.38;21.52;;;;;;;-3.26;100.00;97858.56;5114811;28;20094;-59
2023/12/02 05:19:16;;;;;;;76.88;22.13;;;;;;;-3.26;100.00;97794.22;5117244;28;20086;-62
2023/12/02 05:21:43;;;;;;;83.85;22.80;;;;;;;-3.51;100.00;97742.06;5114634;28;20056;-60
2023/12/02 05:24:09;;;;;;;69.75;24.05;;;;;;;-3.58;100.00;97774.66;5117191;28;20052;-58
2023/12/02 05:26:35;;;;;;;85.90;24.55;;;;;;;-3.54;100.00;97788.22;5114590;28;20101;-62
2023/12/02 05:29:05;;;;;;;96.20;26.92;;;;;;;-3.51;100.00;97792.19;5114749;28;20365;-55
2023/12/02 05:31:32;;;;;;;87.50;24.65;;;;;;;-3.82;100.00;97783.00;5116933;28;20364;-61
2023/12/02 05:33:58;;;;;;;103.78;27.85;;;;;;;-3.72;100.00;97835.53;5114707;28;20085;-58
2023/12/02 05:36:25;;;;;;;78.80;23.83;;;;;;;-3.66;100.00;97895.16;5116849;28;20109;-62
2023/12/02 05:38:51;;;;;;;88.43;24.38;;;;;;;-3.71;100.00;97922.81;5114814;28;20059;-62
2023/12/02 05:41:18;;;;;;;98.57;25.70;;;;;;;-3.54;100.00;97940.94;5116919;28;20059;-60
2023/12/02 05:43:44;;;;;;;91.03;26.23;;;;;;;-3.88;100.00;97928.81;5114168;28;20063;-58
2023/12/02 05:46:15;;;;;;;78.88;24.25;;;;;;;-3.77;100.00;97982.94;5117168;28;20052;-62
2023/12/02 05:48:42;;;;;;;86.22;23.88;;;;;;;-3.63;100.00;97978.38;5114398;28;20062;-55
2023/12/02 05:51:09;;;;;;;89.65;23.50;;;;;;;-3.73;100.00;97973.22;5116851;28;20101;-59
2023/12/02 05:53:35;;;;;;;80.53;25.08;;;;;;;-3.91;100.00;97961.53;5114250;28;20177;-61
2023/12/02 05:56:01;;;;;;;81.50;23.27;;;;;;;-3.60;100.00;97977.78;5114174;28;20051;-61
2023/12/02 05:58:28;;;;;;;87.32;25.30;;;;;;;-3.57;100.00;97954.91;5116427;28;20094;-55
2023/12/02 06:00:54;;;;;;;79.55;23.27;;;;;;;-3.62;100.00;97944.34;5114407;28;20346;-61
2023/12/02 06:03:21;;;;;;;81.82;23.70;;;;;;;-3.53;100.00;97939.03;5116372;28;20083;-60
2023/12/02 06:05:48;;;;;;;80.93;23.42;;;;;;;-3.51;100.00;97931.50;5114324;28;20391;-58
2023/12/02 06:08:14;;;;;;;80.53;22.45;;;;;;;-3.34;100.00;97931.63;5116902;28;20052;-61
2023/12/02 06:10:40;;;;;;;75.35;23.05;;;;;;;-3.29;100.00;97906.63;5117650;28;20059;-60
2023/12/02 06:13:07;;;;;;;75.72;22.33;;;;;;;-3.49;100.00;97852.41;5119744;28;20103;-58
2023/12/02 06:15:33;;;;;;;84.70;23.70;;;;;;;-3.48;100.00;97850.53;5117295;28;20055;-62
2023/12/02 06:18:00;;;;;;;87.47;23.98;;;;;;;-3.62;100.00;97893.44;5119711;28;20062;-58
2023/12/02 06:20:26;;;;;;;82.93;23.17;;;;;;;-3.48;100.00;97937.03;5117120;28;20065;-61
2023/12/02 06:22:53;;;;;;;70.63;24.13;;;;;;;-3.45;100.00;97935.66;5118369;28;20079;-60
2023/12/02 06:25:20;;;;;;;82.60;25.42;;;;;;;-3.33;100.00;97923.31;5118442;28;20174;-57
2023/12/02 06:27:47;;;;;;;87.78;25.45;;;;;;;-3.19;100.00;97901.00;5116978;28;20129;-57
2023/12/02 06:30:16;;;;;;;103.18;27.83;;;;;;;-3.21;100.00;97845.00;5119447;28;20303;-62
2023/12/02 06:32:42;;;;;;;82.32;23.95;;;;;;;-3.20;100.00;97813.63;5117115;28;20066;-60
2023/12/02 06:35:10;;;;;;;84.90;23.85;;;;;;;-3.25;100.00;97790.44;5119452;28;20421;-61
2023/12/02 06:37:37;;;;;;;87.50;23.45;;;;;;;-3.32;100.00;97787.41;5117125;28;20051;-56
2023/12/02 06:40:05;;;;;;;83.28;24.67;;;;;;;-3.43;100.00;97804.81;5119596;28;20051;-60
2023/12/02 06:42:31;;;;;;;81.75;25.90;;;;;;;-3.35;100.00;97847.78;5117165;28;20055;-58
2023/12/02 06:44:58;;;;;;;93.57;24.80;;;;;;;-3.12;100.00;97877.25;5119422;28;20060;-60
2023/12/02 06:47:24;;;;;;;96.78;25.15;;;;;;;-3.08;100.00;97843.34;5116900;28;20051;-56
2023/12/02 06:49:50;;;;;;;86.47;25.17;;;;;;;-2.98;100.00;97818.16;5118837;28;20409;-58
2023/12/02 06:52:17;;;;;;;93.28;26.27;;;;;;;-3.23;100.00;97782.09;5118092;28;20341;-61
2023/12/02 06:54:43;;;;;;;98.10;23.60;;;;;;;-2.97;100.00;97799.06;5116739;28;20052;-57
2023/12/02 06:57:10;;;;;;;80.60;22.20;;;;;;;-2.85;100.00;97785.09;5118666;28;20062;-57
2023/12/02 06:59:36;;;;;;;74.72;23.45;;;;;;;-2.82;100.00;97765.69;5116765;28;20059;-57
2023/12/02 07:02:03;;;;;;;84.93;23.67;;;;;;;-2.78;100.00;97749.78;5118991;28;20047;-56
2023/12/02 07:04:30;;;;;;;93.60;24.60;;;;;;;-2.71;100.00;97739.38;5116829;28;20055;-60
2023/12/02 07:06:56;;;;;;;90.00;23.88;;;;;;;-2.60;100.00;97729.91;5119394;28;20056;-59
2023/12/02 07:09:22;;;;;;;94.57;23.83;;;;;;;-2.55;100.00;97716.34;5116779;28;20093;-60
2023/12/02 07:11:49;;;;;;;80.95;21.33;;;;;;;-2.39;100.00;97696.00;5119174;28;20417;-56
2023/12/02 07:14:16;;;;;;;98.13;25.13;;;;;;;-2.58;100.00;97676.75;5116640;28;20432;-58
2023/12/02 07:16:42;;;;;;;81.40;21.60;;;;;;;-2.38;100.00;97689.53;5119237;28;20090;-56
2023/12/02 07:19:08;;;;;;;88.22;24.45;;;;;;;-2.41;100.00;97668.69;5116151;28;20066;-58
2023/12/02 07:21:35;;;;;;;92.15;23.50;;;;;;;-2.38;100.00;97659.22;5116456;28;20051;-62
2023/12/02 07:24:01;;;;;;;89.07;22.88;;;;;;;-2.37;100.00;97655.41;5118445;28;20056;-60
2023/12/02 07:26:28;;;;;;;79.78;24.23;;;;;;;-2.30;100.00;97644.19;5116414;28;20421;-59
2023/12/02 07:28:54;;;;;;;76.43;22.42;;;;;;;-2.18;100.00;97639.78;5118836;28;20086;-61
2023/12/02 07:31:21;;;;;;;95.38;24.83;;;;;;;-2.23;100.00;97618.47;5116480;28;20056;-61
2023/12/02 07:33:48;;;;;;;74.35;21.25;;;;;;;-2.06;100.00;97619.56;5118934;28;20112;-59
2023/12/02 07:36:14;;;;;;;80.38;24.63;;;;;;;-2.17;100.00;97587.66;5116548;28;20222;-59
2023/12/02 07:38:40;;;;;;;81.40;23.20;;;;;;;-2.16;100.00;97591.16;5118700;28;20063;-63
2023/12/02 07:41:08;;;;;;;69.93;20.67;;;;;;;-2.15;100.00;97603.44;5116107;28;20087;-58
2023/12/02 07:43:34;;;;;;;69.38;20.92;;;;;;;-2.06;100.00;97612.28;5118456;28;20055;-56
2023/12/02 07:46:00;;;;;;;64.35;19.77;;;;;;;-1.96;100.00;97586.97;5115992;28;20047;-63
2023/12/02 07:48:28;;;;;;;65.85;19.13;;;;;;;-1.94;100.00;97574.00;5116545;28;20090;-60
2023/12/02 07:50:54;;;;;;;57.30;18.73;;;;;;;-1.82;100.00;97546.47;5118028;28;20081;-58
2023/12/02 07:53:22;;;;;;;62.17;19.35;;;;;;;-1.89;100.00;97520.13;5115849;28;20075;-59
2023/12/02 07:55:48;;;;;;;70.72;21.45;;;;;;;-1.84;100.00;97501.13;5118073;28;20058;-59
2023/12/02 07:58:14;;;;;;;70.70;20.10;;;;;;;-1.90;100.00;97478.22;5115804;28;20070;-61
2023/12/02 08:00:41;;;;;;;74.38;21.77;;;;;;;-2.03;100.00;97474.69;5118075;28;20047;-58
2023/12/02 08:03:07;;;;;;;76.47;19.38;;;;;;;-2.09;100.00;97502.84;5116119;28;20056;-58
2023/12/02 08:05:34;;;;;;;58.22;19.95;;;;;;;-2.36;100.00;97525.50;5118166;28;20151;-60
2023/12/02 08:08:00;;;;;;;65.10;19.65;;;;;;;-2.05;100.00;97565.50;5115679;28;20052;-59
2023/12/02 08:10:27;;;;;;;58.42;19.55;;;;;;;-1.92;100.00;97556.47;5118234;28;20137;-62
2023/12/02 08:12:53;;;;;;;58.25;19.20;;;;;;;-2.03;100.00;97566.00;5115645;28;20105;-59
2023/12/02 08:15:19;;;;;;;57.63;19.33;;;;;;;-1.96;100.00;97579.72;5117844;28;20110;-62
2023/12/02 08:17:46;;;;;;;57.50;18.30;;;;;;;-1.94;100.00;97563.25;5116186;28;20108;-59
2023/12/02 08:20:13;;;;;;;75.20;21.88;;;;;;;-2.01;100.00;97584.47;5115621;28;20052;-61
2023/12/02 08:22:40;;;;;;;54.72;19.35;;;;;;;-1.92;100.00;97587.91;5117669;28;20051;-60
2023/12/02 08:25:08;;;;;;;64.22;19.25;;;;;;;-2.07;100.00;97591.88;5115326;28;20059;-58
2023/12/02 08:27:34;;;;;;;59.92;19.50;;;;;;;-2.09;100.00;97588.75;5117580;28;20062;-60
2023/12/02 08:30:01;;;;;;;59.28;19.10;;;;;;;-1.94;100.00;97590.13;5115555;28;20388;-59
2023/12/02 08:32:27;;;;;;;52.80;16.60;;;;;;;-1.95;100.00;97596.59;5116845;28;20380;-62
2023/12/02 08:34:54;;;;;;;53.97;17.42;;;;;;;-2.03;100.00;97595.53;5115244;28;20051;-60
2023/12/02 08:37:20;;;;;;;58.45;16.73;;;;;;;-2.04;100.00;97612.72;5117885;28;20055;-58
2023/12/02 08:39:47;;;;;;;60.25;18.25;;;;;;;-1.98;100.00;97632.94;5115242;28;20052;-61
2023/12/02 08:42:14;;;;;;;55.95;16.70;;;;;;;-1.82;100.00;97648.56;5117848;28;20055;-56
2023/12/02 08:44:41;;;;;;;51.97;17.13;;;;;;;-1.80;100.00;97627.50;5115023;28;20061;-59
2023/12/02 08:47:08;;;;;;;55.55;18.50;;;;;;;-1.92;100.00;97615.56;5115149;28;20056;-56
2023/12/02 08:49:34;;;;;;;54.20;17.30;;;;;;;-1.83;100.00;97622.78;5117454;28;20064;-60
2023/12/02 08:52:00;;;;;;;55.50;17.52;;;;;;;-1.82;100.00;97641.28;5114878;28;20058;-62
2023/12/02 08:54:27;;;;;;;51.25;17.52;;;;;;;-1.81;100.00;97636.69;5117419;28;20056;-59
2023/12/02 08:56:54;;;;;;;56.90;17.67;;;;;;;-1.81;100.00;97645.53;5115283;28;20063;-59
2023/12/02 08:59:20;;;;;;;60.95;17.73;;;;;;;-1.84;100.00;97666.88;5117336;28;20097;-62
2023/12/02 09:01:46;;;;;;;62.45;18.55;;;;;;;-1.94;100.00;97660.72;5114810;28;20051;-62
2023/12/02 09:04:13;;;;;;;63.03;18.20;;;;;;;-2.21;100.00;97666.47;5116681;28;20051;-62
2023/12/02 09:06:39;;;;;;;59.38;18.77;;;;;;;-2.06;100.00;97695.53;5114774;28;20047;-57
2023/12/02 09:09:05;;;;;;;56.47;17.90;;;;;;;-1.94;100.00;97709.06;5117273;28;20051;-60
2023/12/02 09:11:32;;;;;;;65.55;20.52;;;;;;;-1.98;100.00;97699.28;5114645;28;20066;-59
2023/12/02 09:13:59;;;;;;;55.25;17.77;;;;;;;-2.00;100.00;97704.19;5115395;28;20074;-58
2023/12/02 09:16:27;;;;;;;64.20;18.27;;;;;;;-2.15;100.00;97726.94;5116623;28;20083;-61
2023/12/02 09:18:54;;;;;;;58.55;17.17;;;;;;;-1.82;100.00;97750.63;5114444;28;20062;-60
2023/12/02 09:21:41;;;;;;;54.70;16.80;;;;;;;-1.74;100.00;97696.09;5116930;28;20055;-59
2023/12/02 09:24:36;;;;;;;56.42;16.90;;;;;;;-1.66;100.00;97685.31;5114461;28;20051;-61
2023/12/02 09:27:06;;;;;;;55.45;18.48;;;;;;;-1.57;100.00;97666.47;5117032;28;20051;-62
2023/12/02 09:29:35;;;;;;;64.47;18.98;;;;;;;-1.94;100.00;97623.13;5114595;28;20055;-62
2023/12/02 09:32:09;;;;;;;65.32;18.40;;;;;;;-1.55;100.00;97642.75;5114724;28;20096;-62
2023/12/02 09:34:56;;;;;;;56.03;16.88;;;;;;;-1.44;100.00;97608.25;5100867;28;20055;-56
2023/12/02 09:37:49;;;;;;;64.20;19.73;;;;;;;-1.63;100.00;97564.84;5114437;28;20055;-60
2023/12/02 09:40:34;;;;;;;51.50;16.02;;;;;;;-1.59;100.00;97560.44;5116799;28;20098;-63
2023/12/02 09:43:20;;;;;;;43.13;14.98;;;;;;;-1.47;100.00;97563.19;5115956;28;20055;-60
2023/12/02 09:46:09;;;;;;;51.00;15.35;;;;;;;-1.47;100.00;97539.78;5117845;28;20066;-63
2023/12/02 09:48:48;;;;;;;52.40;15.85;;;;;;;-1.30;100.00;97514.72;5120427;28;20144;-62
2023/12/02 09:51:27;;;;;;;46.40;16.27;;;;;;;-1.22;100.00;97486.97;5118006;28;20078;-60
2023/12/02 09:54:05;;;;;;;50.42;17.05;;;;;;;-1.17;100.00;97469.84;5119818;28;20059;-62
2023/12/02 09:56:39;;;;;;;53.25;16.75;;;;;;;-1.05;100.00;97459.16;5117765;28;20066;-62
2023/12/02 09:59:14;;;;;;;50.75;16.52;;;;;;;-1.00;100.00;97450.88;5117873;28;20097;-60
2023/12/02 10:01:43;;;;;;;51.70;17.20;;;;;;;-1.02;100.00;97439.66;5119777;28;20058;-62
2023/12/02 10:04:24;;;;;;;54.95;18.73;;;;;;;-0.93;100.00;97431.53;5117822;28;20101;-60
2023/12/02 10:06:58;;;;;;;47.70;16.13;;;;;;;-0.81;100.00;97423.47;5119864;28;20134;-58
2023/12/02 10:09:38;;;;;;;52.25;17.15;;;;;;;-0.89;100.00;97416.28;5117337;28;20436;-60
2023/12/02 10:12:26;;;;;;;51.97;17.50;;;;;;;-0.79;100.00;97415.09;5119844;28;20094;-62
2023/12/02 10:15:00;;;;;;;45.85;15.57;;;;;;;-0.63;100.00;97399.06;5119697;28;20067;-58
2023/12/02 10:17:31;;;;;;;57.35;18.55;;;;;;;-0.67;100.00;97384.69;5117940;28;20079;-62
2023/12/02 10:20:08;;;;;;;52.88;16.08;;;;;;;-0.52;100.00;97392.13;5119824;28;20066;-61
2023/12/02 10:22:42;;;;;;;53.88;15.85;;;;;;;-0.64;100.00;97387.50;5117577;28;20089;-63
2023/12/02 10:25:14;;;;;;;43.00;13.43;;;;;;;-0.60;100.00;97383.06;5119798;28;20071;-62
2023/12/02 10:27:41;;;;;;;41.03;13.90;;;;;;;-0.52;100.00;97379.47;5117354;28;20108;-59
2023/12/02 10:30:10;;;;;;;38.03;13.63;;;;;;;-0.51;100.00;97393.69;5119895;28;20055;-62
2023/12/02 10:32:49;;;;;;;37.83;14.50;;;;;;;-0.68;100.00;97402.75;5117352;28;20055;-63
2023/12/02 10:35:18;;;;;;;42.40;15.15;;;;;;;-0.63;100.00;97407.94;5117199;28;20090;-57
2023/12/02 10:37:51;;;;;;;54.50;18.75;;;;;;;-0.54;100.00;97405.13;5119406;28;20051;-60
2023/12/02 10:40:23;;;;;;;37.38;14.15;;;;;;;-0.51;100.00;97399.88;5117055;28;20056;-62
2023/12/02 10:42:59;;;;;;;39.53;14.63;;;;;;;-0.56;100.00;97404.69;5119461;28;20408;-60
2023/12/02 10:45:26;;;;;;;56.15;16.92;;;;;;;-0.63;100.00;97394.47;5117093;28;20148;-61
2023/12/02 10:47:55;;;;;;;54.70;18.10;;;;;;;-0.61;100.00;97394.91;5119771;28;20699;-60
2023/12/02 10:50:22;;;;;;;41.22;14.77;;;;;;;-0.59;100.00;97395.38;5116850;28;20412;-62
2023/12/02 10:53:00;;;;;;;44.75;16.48;;;;;;;-0.43;100.00;97389.31;5119606;28;20055;-61
2023/12/02 10:55:29;;;;;;;54.13;17.13;;;;;;;-0.41;100.00;97387.88;5118460;28;20321;-60
2023/12/02 10:57:57;;;;;;;63.08;20.88;;;;;;;-0.50;100.00;97397.94;5116752;28;20490;-61
2023/12/02 11:00:27;;;;;;;53.10;15.50;;;;;;;-0.80;100.00;97394.66;5119390;28;20066;-62
2023/12/02 11:03:00;;;;;;;48.78;15.23;;;;;;;-0.65;100.00;97390.56;5117065;28;20059;-58
2023/12/02 11:05:28;;;;;;;53.53;14.80;;;;;;;-0.46;100.00;97398.88;5118785;28;20063;-59
2023/12/02 11:07:56;;;;;;;44.97;15.07;;;;;;;-0.43;100.00;97400.91;5116592;28;20095;-64
2023/12/02 11:10:31;;;;;;;43.72;14.93;;;;;;;-0.52;100.00;97392.91;5119226;28;20328;-62
2023/12/02 11:13:02;;;;;;;50.08;16.15;;;;;;;-0.92;100.00;97395.44;5116707;28;20486;-61